James Island, South Carolina
Current Conditions -  °F | °C
As of 7:35 AM on Monday 24 Nov 2014 (Local Time) from KJZI Reporting Station
Haze Haze  
Wind Chill: 66°   Ceiling: 100
Heat Index: 66°   Visibility: 0.75mi
Dew Point: 66°   Wind: 8mph
Humidity: 100%   Direction: 220°SW
Pressure: 29.89"   Gusts: NA
Location:  32.7248°N, 79.9608°W
Report Text: KJZI 241235Z AUTO 22007KT 3/4SM BR OVC001 19/19 A2989 RMK A02 P000
Loading
Personal Weather Stations






























Interactive Weather Map New forecast layout! Learn more

10-Day Weather Forecast

Advertisements
Track Severe Weather on mobile